sensor_id;sensor_type;location;lat;lon;timestamp;pressure;altitude;pressure_sealevel;temperature
60731;BMP280;46580;52.114;11.674;2024-03-02T00:01:50;-19397.22;;;6.60
60731;BMP280;46580;52.114;11.674;2024-03-02T00:04:15;-19397.50;;;6.61
60731;BMP280;46580;52.114;11.674;2024-03-02T00:06:42;-19397.09;;;6.59
60731;BMP280;46580;52.114;11.674;2024-03-02T00:09:09;-19396.38;;;6.57
60731;BMP280;46580;52.114;11.674;2024-03-02T00:11:36;-19399.22;;;6.67
60731;BMP280;46580;52.114;11.674;2024-03-02T00:14:02;-19399.22;;;6.67
60731;BMP280;46580;52.114;11.674;2024-03-02T00:16:31;-19398.66;;;6.65
60731;BMP280;46580;52.114;11.674;2024-03-02T00:19:01;-19397.78;;;6.62
60731;BMP280;46580;52.114;11.674;2024-03-02T00:21:29;-19397.22;;;6.60
60731;BMP280;46580;52.114;11.674;2024-03-02T00:23:55;-19395.22;;;6.53
60731;BMP280;46580;52.114;11.674;2024-03-02T00:26:20;-19392.06;;;6.42
60731;BMP280;46580;52.114;11.674;2024-03-02T00:28:46;-19390.63;;;6.37
60731;BMP280;46580;52.114;11.674;2024-03-02T00:31:12;-19389.75;;;6.34
60731;BMP280;46580;52.114;11.674;2024-03-02T00:33:48;-19389.75;;;6.34
60731;BMP280;46580;52.114;11.674;2024-03-02T00:36:22;-19388.47;;;6.30
60731;BMP280;46580;52.114;11.674;2024-03-02T00:38:50;-19388.63;;;6.31
60731;BMP280;46580;52.114;11.674;2024-03-02T00:41:23;-19388.63;;;6.31
60731;BMP280;46580;52.114;11.674;2024-03-02T00:44:07;-19388.47;;;6.30
60731;BMP280;46580;52.114;11.674;2024-03-02T00:46:36;-19389.06;;;6.32
60731;BMP280;46580;52.114;11.674;2024-03-02T00:49:03;-19385.19;;;6.19
60731;BMP280;46580;52.114;11.674;2024-03-02T00:51:32;-19385.31;;;6.19
60731;BMP280;46580;52.114;11.674;2024-03-02T00:54:00;-19385.19;;;6.19
60731;BMP280;46580;52.114;11.674;2024-03-02T00:56:26;-19385.03;;;6.18
60731;BMP280;46580;52.114;11.674;2024-03-02T00:58:52;-19383.47;;;6.13
60731;BMP280;46580;52.114;11.674;2024-03-02T01:01:18;-19384.03;;;6.15
60731;BMP280;46580;52.114;11.674;2024-03-02T01:03:45;-19385.75;;;6.21
60731;BMP280;46580;52.114;11.674;2024-03-02T01:06:10;-19383.75;;;6.14
60731;BMP280;46580;52.114;11.674;2024-03-02T01:08:36;-19382.44;;;6.10
60731;BMP280;46580;52.114;11.674;2024-03-02T01:11:02;-19383.59;;;6.13
60731;BMP280;46580;52.114;11.674;2024-03-02T01:13:28;-19385.75;;;6.21
60731;BMP280;46580;52.114;11.674;2024-03-02T01:15:54;-19388.34;;;6.30
60731;BMP280;46580;52.114;11.674;2024-03-02T01:18:19;-19385.75;;;6.21
60731;BMP280;46580;52.114;11.674;2024-03-02T01:20:44;-19385.19;;;6.19
60731;BMP280;46580;52.114;11.674;2024-03-02T01:23:10;-19383.88;;;6.14
60731;BMP280;46580;52.114;11.674;2024-03-02T01:25:36;-19384.31;;;6.16
60731;BMP280;46580;52.114;11.674;2024-03-02T01:28:01;-19386.91;;;6.25
60731;BMP280;46580;52.114;11.674;2024-03-02T01:30:27;-19383.31;;;6.13
60731;BMP280;46580;52.114;11.674;2024-03-02T01:32:52;-19380.16;;;6.02
60731;BMP280;46580;52.114;11.674;2024-03-02T01:35:17;-19374.56;;;5.83
60731;BMP280;46580;52.114;11.674;2024-03-02T01:37:43;-19374.56;;;5.83
60731;BMP280;46580;52.114;11.674;2024-03-02T01:40:08;-19373.69;;;5.80
60731;BMP280;46580;52.114;11.674;2024-03-02T01:42:38;-19374.56;;;5.83
60731;BMP280;46580;52.114;11.674;2024-03-02T01:45:05;-19375.41;;;5.86
60731;BMP280;46580;52.114;11.674;2024-03-02T01:47:30;-19374.28;;;5.82
60731;BMP280;46580;52.114;11.674;2024-03-02T01:49:57;-19376.44;;;5.89
60731;BMP280;46580;52.114;11.674;2024-03-02T01:52:23;-19377.16;;;5.92
60731;BMP280;46580;52.114;11.674;2024-03-02T01:54:48;-19377.44;;;5.93
60731;BMP280;46580;52.114;11.674;2024-03-02T01:57:14;-19379.28;;;5.99
60731;BMP280;46580;52.114;11.674;2024-03-02T01:59:39;-19380.00;;;6.01
60731;BMP280;46580;52.114;11.674;2024-03-02T02:02:05;-19380.31;;;6.02
60731;BMP280;46580;52.114;11.674;2024-03-02T02:04:30;-19380.00;;;6.01
60731;BMP280;46580;52.114;11.674;2024-03-02T02:06:56;-19378.56;;;5.96
60731;BMP280;46580;52.114;11.674;2024-03-02T02:09:25;-19378.56;;;5.96
60731;BMP280;46580;52.114;11.674;2024-03-02T02:11:51;-19382.31;;;6.09
60731;BMP280;46580;52.114;11.674;2024-03-02T02:14:16;-19382.59;;;6.10
60731;BMP280;46580;52.114;11.674;2024-03-02T02:16:42;-19383.75;;;6.14
60731;BMP280;46580;52.114;11.674;2024-03-02T02:19:07;-19387.63;;;6.27
60731;BMP280;46580;52.114;11.674;2024-03-02T02:21:33;-19390.47;;;6.37
60731;BMP280;46580;52.114;11.674;2024-03-02T02:23:58;-19388.63;;;6.31
60731;BMP280;46580;52.114;11.674;2024-03-02T02:26:24;-19386.19;;;6.22
60731;BMP280;46580;52.114;11.674;2024-03-02T02:28:49;-19385.47;;;6.20
60731;BMP280;46580;52.114;11.674;2024-03-02T02:31:15;-19388.34;;;6.30
60731;BMP280;46580;52.114;11.674;2024-03-02T02:33:41;-19388.03;;;6.29
60731;BMP280;46580;52.114;11.674;2024-03-02T02:36:06;-19390.34;;;6.36
60731;BMP280;46580;52.114;11.674;2024-03-02T02:38:33;-19391.78;;;6.41
60731;BMP280;46580;52.114;11.674;2024-03-02T02:41:00;-19391.78;;;6.41
60731;BMP280;46580;52.114;11.674;2024-03-02T02:43:25;-19392.63;;;6.44
60731;BMP280;46580;52.114;11.674;2024-03-02T02:45:51;-19393.22;;;6.46
60731;BMP280;46580;52.114;11.674;2024-03-02T02:48:16;-19392.06;;;6.42
60731;BMP280;46580;52.114;11.674;2024-03-02T02:50:41;-19394.22;;;6.49
60731;BMP280;46580;52.114;11.674;2024-03-02T02:53:07;-19393.50;;;6.47
60731;BMP280;46580;52.114;11.674;2024-03-02T02:55:34;-19394.22;;;6.49
60731;BMP280;46580;52.114;11.674;2024-03-02T02:58:00;-19396.66;;;6.58
60731;BMP280;46580;52.114;11.674;2024-03-02T03:00:25;-19397.22;;;6.60
60731;BMP280;46580;52.114;11.674;2024-03-02T03:02:51;-19396.94;;;6.59
60731;BMP280;46580;52.114;11.674;2024-03-02T03:05:17;-19396.94;;;6.59
60731;BMP280;46580;52.114;11.674;2024-03-02T03:07:42;-19396.66;;;6.58
60731;BMP280;46580;52.114;11.674;2024-03-02T03:10:09;-19396.66;;;6.58
60731;BMP280;46580;52.114;11.674;2024-03-02T03:12:35;-19392.50;;;6.44
60731;BMP280;46580;52.114;11.674;2024-03-02T03:15:01;-19392.19;;;6.43
60731;BMP280;46580;52.114;11.674;2024-03-02T03:17:26;-19393.78;;;6.48
60731;BMP280;46580;52.114;11.674;2024-03-02T03:19:58;-19394.34;;;6.50
60731;BMP280;46580;52.114;11.674;2024-03-02T03:22:23;-19395.06;;;6.52
60731;BMP280;46580;52.114;11.674;2024-03-02T03:24:49;-19395.50;;;6.54
60731;BMP280;46580;52.114;11.674;2024-03-02T03:27:14;-19398.81;;;6.65
60731;BMP280;46580;52.114;11.674;2024-03-02T03:29:40;-19400.09;;;6.69
60731;BMP280;46580;52.114;11.674;2024-03-02T03:32:05;-19399.66;;;6.68
60731;BMP280;46580;52.114;11.674;2024-03-02T03:34:34;-19401.53;;;6.74
60731;BMP280;46580;52.114;11.674;2024-03-02T03:37:00;-19399.81;;;6.68
60731;BMP280;46580;52.114;11.674;2024-03-02T03:39:25;-19398.50;;;6.64
60731;BMP280;46580;52.114;11.674;2024-03-02T03:41:51;-19397.78;;;6.62
60731;BMP280;46580;52.114;11.674;2024-03-02T03:44:16;-19396.94;;;6.59
60731;BMP280;46580;52.114;11.674;2024-03-02T03:46:41;-19397.22;;;6.60
60731;BMP280;46580;52.114;11.674;2024-03-02T03:49:07;-19398.81;;;6.65
60731;BMP280;46580;52.114;11.674;2024-03-02T03:51:33;-19399.94;;;6.69
60731;BMP280;46580;52.114;11.674;2024-03-02T03:53:58;-19400.09;;;6.69
60731;BMP280;46580;52.114;11.674;2024-03-02T03:56:24;-19399.22;;;6.67
60731;BMP280;46580;52.114;11.674;2024-03-02T03:58:49;-19398.81;;;6.65
60731;BMP280;46580;52.114;11.674;2024-03-02T04:01:14;-19396.38;;;6.57
60731;BMP280;46580;52.114;11.674;2024-03-02T04:03:41;-19395.38;;;6.53
60731;BMP280;46580;52.114;11.674;2024-03-02T04:06:07;-19396.38;;;6.57
60731;BMP280;46580;52.114;11.674;2024-03-02T04:08:32;-19399.22;;;6.67
60731;BMP280;46580;52.114;11.674;2024-03-02T04:10:57;-19400.66;;;6.71
60731;BMP280;46580;52.114;11.674;2024-03-02T04:13:23;-19399.94;;;6.69
60731;BMP280;46580;52.114;11.674;2024-03-02T04:15:48;-19399.22;;;6.67
60731;BMP280;46580;52.114;11.674;2024-03-02T04:18:13;-19400.22;;;6.70
60731;BMP280;46580;52.114;11.674;2024-03-02T04:20:38;-19400.53;;;6.71
60731;BMP280;46580;52.114;11.674;2024-03-02T04:23:04;-19399.22;;;6.67
60731;BMP280;46580;52.114;11.674;2024-03-02T04:25:29;-19398.50;;;6.64
60731;BMP280;46580;52.114;11.674;2024-03-02T04:27:54;-19401.25;;;6.73
60731;BMP280;46580;52.114;11.674;2024-03-02T04:30:20;-19398.66;;;6.65
60731;BMP280;46580;52.114;11.674;2024-03-02T04:32:45;-19398.09;;;6.63
60731;BMP280;46580;52.114;11.674;2024-03-02T04:35:14;-19395.94;;;6.55
60731;BMP280;46580;52.114;11.674;2024-03-02T04:37:39;-19396.38;;;6.57
60731;BMP280;46580;52.114;11.674;2024-03-02T04:40:05;-19394.50;;;6.50
60731;BMP280;46580;52.114;11.674;2024-03-02T04:42:34;-19396.66;;;6.58
60731;BMP280;46580;52.114;11.674;2024-03-02T04:45:00;-19395.22;;;6.53
60731;BMP280;46580;52.114;11.674;2024-03-02T04:47:25;-19393.78;;;6.48
60731;BMP280;46580;52.114;11.674;2024-03-02T04:49:50;-19396.66;;;6.58
60731;BMP280;46580;52.114;11.674;2024-03-02T04:52:16;-19398.81;;;6.65
60731;BMP280;46580;52.114;11.674;2024-03-02T04:54:42;-19400.38;;;6.70
60731;BMP280;46580;52.114;11.674;2024-03-02T04:57:26;-19400.22;;;6.70
60731;BMP280;46580;52.114;11.674;2024-03-02T04:59:51;-19398.09;;;6.63
60731;BMP280;46580;52.114;11.674;2024-03-02T05:02:16;-19395.78;;;6.55
60731;BMP280;46580;52.114;11.674;2024-03-02T05:04:42;-19392.94;;;6.45
60731;BMP280;46580;52.114;11.674;2024-03-02T05:07:07;-19393.22;;;6.46
60731;BMP280;46580;52.114;11.674;2024-03-02T05:09:32;-19391.34;;;6.40
60731;BMP280;46580;52.114;11.674;2024-03-02T05:11:58;-19392.78;;;6.45
60731;BMP280;46580;52.114;11.674;2024-03-02T05:14:42;-19392.78;;;6.45
60731;BMP280;46580;52.114;11.674;2024-03-02T05:17:07;-19391.47;;;6.40
60731;BMP280;46580;52.114;11.674;2024-03-02T05:19:32;-19393.63;;;6.48
60731;BMP280;46580;52.114;11.674;2024-03-02T05:21:58;-19393.06;;;6.46
60731;BMP280;46580;52.114;11.674;2024-03-02T05:24:23;-19395.22;;;6.53
60731;BMP280;46580;52.114;11.674;2024-03-02T05:26:49;-19393.50;;;6.47
60731;BMP280;46580;52.114;11.674;2024-03-02T05:29:14;-19392.94;;;6.45
60731;BMP280;46580;52.114;11.674;2024-03-02T05:31:40;-19393.22;;;6.46
60731;BMP280;46580;52.114;11.674;2024-03-02T05:34:05;-19393.78;;;6.48
60731;BMP280;46580;52.114;11.674;2024-03-02T05:36:31;-19394.22;;;6.49
60731;BMP280;46580;52.114;11.674;2024-03-02T05:38:57;-19394.94;;;6.52
60731;BMP280;46580;52.114;11.674;2024-03-02T05:41:22;-19393.50;;;6.47
60731;BMP280;46580;52.114;11.674;2024-03-02T05:43:47;-19393.06;;;6.46
60731;BMP280;46580;52.114;11.674;2024-03-02T05:46:13;-19394.66;;;6.51
60731;BMP280;46580;52.114;11.674;2024-03-02T05:48:38;-19395.50;;;6.54
60731;BMP280;46580;52.114;11.674;2024-03-02T05:51:04;-19397.78;;;6.62
60731;BMP280;46580;52.114;11.674;2024-03-02T05:53:29;-19397.50;;;6.61
60731;BMP280;46580;52.114;11.674;2024-03-02T05:55:54;-19396.94;;;6.59
60731;BMP280;46580;52.114;11.674;2024-03-02T05:58:20;-19396.38;;;6.57
60731;BMP280;46580;52.114;11.674;2024-03-02T06:00:57;-19398.50;;;6.64
60731;BMP280;46580;52.114;11.674;2024-03-02T06:03:23;-19398.22;;;6.63
60731;BMP280;46580;52.114;11.674;2024-03-02T06:05:48;-19398.50;;;6.64
60731;BMP280;46580;52.114;11.674;2024-03-02T06:08:14;-19399.50;;;6.68
60731;BMP280;46580;52.114;11.674;2024-03-02T06:10:40;-19401.25;;;6.73
60731;BMP280;46580;52.114;11.674;2024-03-02T06:13:05;-19400.09;;;6.69
60731;BMP280;46580;52.114;11.674;2024-03-02T06:15:31;-19398.94;;;6.66
60731;BMP280;46580;52.114;11.674;2024-03-02T06:17:56;-19397.78;;;6.62
60731;BMP280;46580;52.114;11.674;2024-03-02T06:20:21;-19398.09;;;6.63
60731;BMP280;46580;52.114;11.674;2024-03-02T06:22:47;-19400.66;;;6.71
60731;BMP280;46580;52.114;11.674;2024-03-02T06:25:12;-19401.09;;;6.73
60731;BMP280;46580;52.114;11.674;2024-03-02T06:27:38;-19401.53;;;6.74
60731;BMP280;46580;52.114;11.674;2024-03-02T06:30:04;-19400.09;;;6.69
60731;BMP280;46580;52.114;11.674;2024-03-02T06:32:30;-19403.38;;;6.81
60731;BMP280;46580;52.114;11.674;2024-03-02T06:34:55;-19402.09;;;6.76
60731;BMP280;46580;52.114;11.674;2024-03-02T06:37:20;-19401.66;;;6.75
60731;BMP280;46580;52.114;11.674;2024-03-02T06:39:46;-19404.97;;;6.86
60731;BMP280;46580;52.114;11.674;2024-03-02T06:42:11;-19405.53;;;6.88
60731;BMP280;46580;52.114;11.674;2024-03-02T06:44:36;-19406.13;;;6.90
60731;BMP280;46580;52.114;11.674;2024-03-02T06:47:02;-19407.84;;;6.96
60731;BMP280;46580;52.114;11.674;2024-03-02T06:49:30;-19406.13;;;6.90
60731;BMP280;46580;52.114;11.674;2024-03-02T06:51:57;-19406.97;;;6.93
60731;BMP280;46580;52.114;11.674;2024-03-02T06:54:22;-19408.41;;;6.98
60731;BMP280;46580;52.114;11.674;2024-03-02T06:56:47;-19406.69;;;6.92
60731;BMP280;46580;52.114;11.674;2024-03-02T06:59:13;-19407.84;;;6.96
60731;BMP280;46580;52.114;11.674;2024-03-02T07:01:38;-19409.84;;;7.03
60731;BMP280;46580;52.114;11.674;2024-03-02T07:04:03;-19410.72;;;7.05
60731;BMP280;46580;52.114;11.674;2024-03-02T07:06:31;-19413.72;;;7.16
60731;BMP280;46580;52.114;11.674;2024-03-02T07:08:57;-19413.44;;;7.15
60731;BMP280;46580;52.114;11.674;2024-03-02T07:11:23;-19413.16;;;7.14
60731;BMP280;46580;52.114;11.674;2024-03-02T07:13:49;-19414.72;;;7.19
60731;BMP280;46580;52.114;11.674;2024-03-02T07:16:14;-19418.16;;;7.31
60731;BMP280;46580;52.114;11.674;2024-03-02T07:18:46;-19419.44;;;7.35
60731;BMP280;46580;52.114;11.674;2024-03-02T07:21:16;-19419.16;;;7.34
60731;BMP280;46580;52.114;11.674;2024-03-02T07:23:42;-19419.59;;;7.36
60731;BMP280;46580;52.114;11.674;2024-03-02T07:26:07;-19421.03;;;7.41
60731;BMP280;46580;52.114;11.674;2024-03-02T07:28:33;-19422.16;;;7.44
60731;BMP280;46580;52.114;11.674;2024-03-02T07:31:02;-19425.31;;;7.55
60731;BMP280;46580;52.114;11.674;2024-03-02T07:33:30;-19425.47;;;7.56
60731;BMP280;46580;52.114;11.674;2024-03-02T07:35:55;-19427.19;;;7.61
60731;BMP280;46580;52.114;11.674;2024-03-02T07:38:21;-19428.06;;;7.64
60731;BMP280;46580;52.114;11.674;2024-03-02T07:40:47;-19429.91;;;7.71
60731;BMP280;46580;52.114;11.674;2024-03-02T07:43:18;-19431.63;;;7.77
60731;BMP280;46580;52.114;11.674;2024-03-02T07:45:44;-19433.50;;;7.83
60731;BMP280;46580;52.114;11.674;2024-03-02T07:48:10;-19431.50;;;7.76
60731;BMP280;46580;52.114;11.674;2024-03-02T07:50:35;-19431.06;;;7.75
60731;BMP280;46580;52.114;11.674;2024-03-02T07:53:02;-19430.50;;;7.73
60731;BMP280;46580;52.114;11.674;2024-03-02T07:55:29;-19431.91;;;7.78
60731;BMP280;46580;52.114;11.674;2024-03-02T07:57:56;-19432.94;;;7.81
60731;BMP280;46580;52.114;11.674;2024-03-02T08:00:22;-19433.34;;;7.82
60731;BMP280;46580;52.114;11.674;2024-03-02T08:02:47;-19436.22;;;7.92
60731;BMP280;46580;52.114;11.674;2024-03-02T08:05:13;-19438.53;;;8.00
60731;BMP280;46580;52.114;11.674;2024-03-02T08:07:39;-19436.66;;;7.94
60731;BMP280;46580;52.114;11.674;2024-03-02T08:10:05;-19435.66;;;7.90
60731;BMP280;46580;52.114;11.674;2024-03-02T08:12:30;-19435.66;;;7.90
60731;BMP280;46580;52.114;11.674;2024-03-02T08:14:56;-19435.50;;;7.90
60731;BMP280;46580;52.114;11.674;2024-03-02T08:17:21;-19438.81;;;8.01
60731;BMP280;46580;52.114;11.674;2024-03-02T08:19:46;-19442.53;;;8.14
60731;BMP280;46580;52.114;11.674;2024-03-02T08:22:14;-19439.09;;;8.02
60731;BMP280;46580;52.114;11.674;2024-03-02T08:24:40;-19441.53;;;8.10
60731;BMP280;46580;52.114;11.674;2024-03-02T08:27:05;-19439.94;;;8.05
60731;BMP280;46580;52.114;11.674;2024-03-02T08:29:31;-19443.97;;;8.18
60731;BMP280;46580;52.114;11.674;2024-03-02T08:31:56;-19445.97;;;8.25
60731;BMP280;46580;52.114;11.674;2024-03-02T08:34:22;-19448.25;;;8.33
60731;BMP280;46580;52.114;11.674;2024-03-02T08:36:47;-19451.25;;;8.43
60731;BMP280;46580;52.114;11.674;2024-03-02T08:39:13;-19450.97;;;8.42
60731;BMP280;46580;52.114;11.674;2024-03-02T08:41:43;-19455.84;;;8.59
60731;BMP280;46580;52.114;11.674;2024-03-02T08:44:09;-19462.88;;;8.83
60731;BMP280;46580;52.114;11.674;2024-03-02T08:46:34;-19464.31;;;8.88
60731;BMP280;46580;52.114;11.674;2024-03-02T08:49:05;-19465.72;;;8.92
60731;BMP280;46580;52.114;11.674;2024-03-02T08:51:31;-19465.16;;;8.91
60731;BMP280;46580;52.114;11.674;2024-03-02T08:53:57;-19464.88;;;8.90
60731;BMP280;46580;52.114;11.674;2024-03-02T08:56:23;-19466.59;;;8.95
60731;BMP280;46580;52.114;11.674;2024-03-02T08:58:49;-19466.59;;;8.95
60731;BMP280;46580;52.114;11.674;2024-03-02T09:01:15;-19468.16;;;9.01
60731;BMP280;46580;52.114;11.674;2024-03-02T09:03:42;-19472.03;;;9.14
60731;BMP280;46580;52.114;11.674;2024-03-02T09:06:10;-19473.03;;;9.17
60731;BMP280;46580;52.114;11.674;2024-03-02T09:08:35;-19470.59;;;9.09
60731;BMP280;46580;52.114;11.674;2024-03-02T09:11:02;-19472.63;;;9.16
60731;BMP280;46580;52.114;11.674;2024-03-02T09:13:28;-19476.03;;;9.28
60731;BMP280;46580;52.114;11.674;2024-03-02T09:15:54;-19475.19;;;9.25
60731;BMP280;46580;52.114;11.674;2024-03-02T09:18:20;-19475.31;;;9.25
60731;BMP280;46580;52.114;11.674;2024-03-02T09:20:46;-19477.47;;;9.32
60731;BMP280;46580;52.114;11.674;2024-03-02T09:23:11;-19481.78;;;9.47
60731;BMP280;46580;52.114;11.674;2024-03-02T09:25:37;-19484.22;;;9.55
60731;BMP280;46580;52.114;11.674;2024-03-02T09:28:02;-19486.63;;;9.64
60731;BMP280;46580;52.114;11.674;2024-03-02T09:30:28;-19486.78;;;9.64
60731;BMP280;46580;52.114;11.674;2024-03-02T09:32:53;-19486.78;;;9.64
60731;BMP280;46580;52.114;11.674;2024-03-02T09:35:19;-19491.50;;;9.80
60731;BMP280;46580;52.114;11.674;2024-03-02T09:37:45;-19491.50;;;9.80
60731;BMP280;46580;52.114;11.674;2024-03-02T09:40:11;-19497.25;;;10.00
60731;BMP280;46580;52.114;11.674;2024-03-02T09:42:37;-19499.81;;;10.08
60731;BMP280;46580;52.114;11.674;2024-03-02T09:45:02;-19503.25;;;10.20
60731;BMP280;46580;52.114;11.674;2024-03-02T09:47:38;-19506.53;;;10.31
60731;BMP280;46580;52.114;11.674;2024-03-02T09:50:06;-19508.13;;;10.37
60731;BMP280;46580;52.114;11.674;2024-03-02T09:52:33;-19512.84;;;10.53
60731;BMP280;46580;52.114;11.674;2024-03-02T09:55:00;-19515.41;;;10.61
60731;BMP280;46580;52.114;11.674;2024-03-02T09:57:32;-19518.00;;;10.70
60731;BMP280;46580;52.114;11.674;2024-03-02T10:00:01;-19520.13;;;10.77
60731;BMP280;46580;52.114;11.674;2024-03-02T10:02:30;-19521.84;;;10.83
60731;BMP280;46580;52.114;11.674;2024-03-02T10:04:56;-19523.28;;;10.88
60731;BMP280;46580;52.114;11.674;2024-03-02T10:07:21;-19521.41;;;10.82
60731;BMP280;46580;52.114;11.674;2024-03-02T10:09:49;-19527.44;;;11.02
60731;BMP280;46580;52.114;11.674;2024-03-02T10:12:17;-19531.72;;;11.17
60731;BMP280;46580;52.114;11.674;2024-03-02T10:14:44;-19536.59;;;11.33
60731;BMP280;46580;52.114;11.674;2024-03-02T10:17:14;-19542.44;;;11.53
60731;BMP280;46580;52.114;11.674;2024-03-02T10:19:42;-19544.31;;;11.60
60731;BMP280;46580;52.114;11.674;2024-03-02T10:22:09;-19545.59;;;11.64
60731;BMP280;46580;52.114;11.674;2024-03-02T10:24:42;-19551.44;;;11.84
60731;BMP280;46580;52.114;11.674;2024-03-02T10:27:23;-19554.31;;;11.94
60731;BMP280;46580;52.114;11.674;2024-03-02T10:29:50;-19556.75;;;12.02
60731;BMP280;46580;52.114;11.674;2024-03-02T10:32:16;-19560.31;;;12.14
60731;BMP280;46580;52.114;11.674;2024-03-02T10:34:45;-19565.03;;;12.30
60731;BMP280;46580;52.114;11.674;2024-03-02T10:37:16;-19562.16;;;12.21
60731;BMP280;46580;52.114;11.674;2024-03-02T10:39:42;-19567.59;;;12.39
60731;BMP280;46580;52.114;11.674;2024-03-02T10:42:08;-19569.88;;;12.47
60731;BMP280;46580;52.114;11.674;2024-03-02T10:44:34;-19573.75;;;12.60
60731;BMP280;46580;52.114;11.674;2024-03-02T10:47:03;-19573.75;;;12.60
60731;BMP280;46580;52.114;11.674;2024-03-02T10:49:30;-19573.88;;;12.61
60731;BMP280;46580;52.114;11.674;2024-03-02T10:51:58;-19578.19;;;12.75
60731;BMP280;46580;52.114;11.674;2024-03-02T10:54:23;-19579.88;;;12.81
60731;BMP280;46580;52.114;11.674;2024-03-02T10:56:52;-19581.03;;;12.85
60731;BMP280;46580;52.114;11.674;2024-03-02T10:59:28;-19581.19;;;12.85
60731;BMP280;46580;52.114;11.674;2024-03-02T11:01:59;-19583.75;;;12.94
60731;BMP280;46580;52.114;11.674;2024-03-02T11:04:29;-19583.88;;;12.95
60731;BMP280;46580;52.114;11.674;2024-03-02T11:07:04;-19583.59;;;12.94
60731;BMP280;46580;52.114;11.674;2024-03-02T11:09:34;-19589.59;;;13.14
60731;BMP280;46580;52.114;11.674;2024-03-02T11:12:06;-19592.75;;;13.25
60731;BMP280;46580;52.114;11.674;2024-03-02T11:14:37;-19595.75;;;13.35
60731;BMP280;46580;52.114;11.674;2024-03-02T11:17:06;-19591.31;;;13.20
60731;BMP280;46580;52.114;11.674;2024-03-02T11:19:32;-19587.31;;;13.06
60731;BMP280;46580;52.114;11.674;2024-03-02T11:21:59;-19585.03;;;12.99
60731;BMP280;46580;52.114;11.674;2024-03-02T11:27:12;-19578.03;;;12.75
60731;BMP280;46580;52.114;11.674;2024-03-02T11:29:44;-19576.19;;;12.68
60731;BMP280;46580;52.114;11.674;2024-03-02T11:34:42;-19579.59;;;12.80
60731;BMP280;46580;52.114;11.674;2024-03-02T11:37:12;-19583.31;;;12.93
60731;BMP280;46580;52.114;11.674;2024-03-02T11:39:42;-19589.19;;;13.13
60731;BMP280;46580;52.114;11.674;2024-03-02T11:42:08;-19587.75;;;13.08
60731;BMP280;46580;52.114;11.674;2024-03-02T11:44:35;-19596.47;;;13.38
60731;BMP280;46580;52.114;11.674;2024-03-02T11:47:02;-19606.44;;;13.72
60731;BMP280;46580;52.114;11.674;2024-03-02T11:52:10;-19606.16;;;13.71
60731;BMP280;46580;52.114;11.674;2024-03-02T11:54:38;-19606.16;;;13.71
60731;BMP280;46580;52.114;11.674;2024-03-02T11:57:05;-19603.31;;;13.61
60731;BMP280;46580;52.114;11.674;2024-03-02T11:59:31;-19598.75;;;13.45
60731;BMP280;46580;52.114;11.674;2024-03-02T12:01:57;-19599.59;;;13.48
60731;BMP280;46580;52.114;11.674;2024-03-02T12:04:23;-19599.31;;;13.47
60731;BMP280;46580;52.114;11.674;2024-03-02T12:06:55;-19599.59;;;13.48
60731;BMP280;46580;52.114;11.674;2024-03-02T12:09:21;-19603.03;;;13.60
60731;BMP280;46580;52.114;11.674;2024-03-02T12:11:46;-19608.59;;;13.79
60731;BMP280;46580;52.114;11.674;2024-03-02T12:14:12;-19610.47;;;13.85
60731;BMP280;46580;52.114;11.674;2024-03-02T12:16:38;-19615.75;;;14.03
60731;BMP280;46580;52.114;11.674;2024-03-02T12:19:05;-19627.00;;;14.42
60731;BMP280;46580;52.114;11.674;2024-03-02T12:21:31;-19632.16;;;14.59
60731;BMP280;46580;52.114;11.674;2024-03-02T12:23:57;-19630.44;;;14.53
60731;BMP280;46580;52.114;11.674;2024-03-02T12:26:23;-19633.00;;;14.62
60731;BMP280;46580;52.114;11.674;2024-03-02T12:28:49;-19637.56;;;14.78
60731;BMP280;46580;52.114;11.674;2024-03-02T12:31:14;-19639.56;;;14.85
60731;BMP280;46580;52.114;11.674;2024-03-02T12:33:40;-19641.00;;;14.89
60731;BMP280;46580;52.114;11.674;2024-03-02T12:36:09;-19637.84;;;14.79
60731;BMP280;46580;52.114;11.674;2024-03-02T12:38:37;-19641.28;;;14.90
60731;BMP280;46580;52.114;11.674;2024-03-02T12:41:02;-19647.84;;;15.13
60731;BMP280;46580;52.114;11.674;2024-03-02T12:43:31;-19653.25;;;15.31
60731;BMP280;46580;52.114;11.674;2024-03-02T12:45:58;-19651.84;;;15.26
60731;BMP280;46580;52.114;11.674;2024-03-02T12:48:23;-19651.56;;;15.25
60731;BMP280;46580;52.114;11.674;2024-03-02T12:50:49;-19647.84;;;15.13
60731;BMP280;46580;52.114;11.674;2024-03-02T12:53:15;-19647.00;;;15.10
60731;BMP280;46580;52.114;11.674;2024-03-02T12:55:41;-19649.28;;;15.18
60731;BMP280;46580;52.114;11.674;2024-03-02T12:58:07;-19650.41;;;15.22
60731;BMP280;46580;52.114;11.674;2024-03-02T13:00:32;-19648.84;;;15.16
60731;BMP280;46580;52.114;11.674;2024-03-02T13:03:00;-19651.13;;;15.24
60731;BMP280;46580;52.114;11.674;2024-03-02T13:05:32;-19647.41;;;15.11
60731;BMP280;46580;52.114;11.674;2024-03-02T13:07:58;-19650.28;;;15.21
60731;BMP280;46580;52.114;11.674;2024-03-02T13:10:24;-19651.84;;;15.26
60731;BMP280;46580;52.114;11.674;2024-03-02T13:12:50;-19654.97;;;15.37
60731;BMP280;46580;52.114;11.674;2024-03-02T13:15:15;-19649.13;;;15.17
60731;BMP280;46580;52.114;11.674;2024-03-02T13:17:41;-19655.69;;;15.40
60731;BMP280;46580;52.114;11.674;2024-03-02T13:20:07;-19663.25;;;15.65
60731;BMP280;46580;52.114;11.674;2024-03-02T13:22:36;-19664.66;;;15.70
60731;BMP280;46580;52.114;11.674;2024-03-02T13:25:02;-19672.66;;;15.98
60731;BMP280;46580;52.114;11.674;2024-03-02T13:27:30;-19667.66;;;15.81
60731;BMP280;46580;52.114;11.674;2024-03-02T13:29:55;-19670.94;;;15.92
60731;BMP280;46580;52.114;11.674;2024-03-02T13:32:20;-19671.50;;;15.94
60731;BMP280;46580;52.114;11.674;2024-03-02T13:34:49;-19675.22;;;16.06
60731;BMP280;46580;52.114;11.674;2024-03-02T13:37:14;-19671.50;;;15.94
60731;BMP280;46580;52.114;11.674;2024-03-02T13:39:39;-19667.66;;;15.81
60731;BMP280;46580;52.114;11.674;2024-03-02T13:42:10;-19665.53;;;15.73
60731;BMP280;46580;52.114;11.674;2024-03-02T13:44:36;-19671.66;;;15.94
60731;BMP280;46580;52.114;11.674;2024-03-02T13:47:02;-19666.25;;;15.76
60731;BMP280;46580;52.114;11.674;2024-03-02T13:49:28;-19666.94;;;15.78
60731;BMP280;46580;52.114;11.674;2024-03-02T13:52:04;-19670.94;;;15.92
60731;BMP280;46580;52.114;11.674;2024-03-02T13:54:37;-19669.22;;;15.86
60731;BMP280;46580;52.114;11.674;2024-03-02T13:57:03;-19666.66;;;15.77
60731;BMP280;46580;52.114;11.674;2024-03-02T13:59:29;-19666.09;;;15.75